sensor_id;sensor_type;location;lat;lon;timestamp;P1;durP1;ratioP1;P2;durP2;ratioP2
11568;SDS011;5840;46.894;15.542;2023-04-25T00:01:56;3.83;;;3.40;;
11568;SDS011;5840;46.894;15.542;2023-04-25T00:04:24;3.50;;;3.30;;
11568;SDS011;5840;46.894;15.542;2023-04-25T00:06:52;3.40;;;3.10;;
11568;SDS011;5840;46.894;15.542;2023-04-25T00:09:19;3.00;;;2.80;;
11568;SDS011;5840;46.894;15.542;2023-04-25T00:11:46;3.03;;;2.83;;
11568;SDS011;5840;46.894;15.542;2023-04-25T00:14:14;3.07;;;2.87;;
11568;SDS011;5840;46.894;15.542;2023-04-25T00:16:41;3.00;;;2.80;;
11568;SDS011;5840;46.894;15.542;2023-04-25T00:19:09;3.20;;;2.90;;
11568;SDS011;5840;46.894;15.542;2023-04-25T00:21:36;3.43;;;2.87;;
11568;SDS011;5840;46.894;15.542;2023-04-25T00:24:05;3.87;;;2.60;;
11568;SDS011;5840;46.894;15.542;2023-04-25T00:26:33;4.80;;;2.63;;
11568;SDS011;5840;46.894;15.542;2023-04-25T00:29:00;2.50;;;2.30;;
11568;SDS011;5840;46.894;15.542;2023-04-25T00:31:29;2.53;;;2.43;;
11568;SDS011;5840;46.894;15.542;2023-04-25T00:33:56;3.07;;;2.40;;
11568;SDS011;5840;46.894;15.542;2023-04-25T00:36:23;2.80;;;2.60;;
11568;SDS011;5840;46.894;15.542;2023-04-25T00:38:50;2.80;;;2.60;;
11568;SDS011;5840;46.894;15.542;2023-04-25T00:41:20;2.87;;;2.67;;
11568;SDS011;5840;46.894;15.542;2023-04-25T00:43:47;3.27;;;2.97;;
11568;SDS011;5840;46.894;15.542;2023-04-25T00:46:15;2.80;;;2.60;;
11568;SDS011;5840;46.894;15.542;2023-04-25T00:48:43;2.83;;;2.63;;
11568;SDS011;5840;46.894;15.542;2023-04-25T00:51:10;2.83;;;2.53;;
11568;SDS011;5840;46.894;15.542;2023-04-25T00:53:42;4.07;;;2.60;;
11568;SDS011;5840;46.894;15.542;2023-04-25T00:56:11;2.40;;;2.30;;
11568;SDS011;5840;46.894;15.542;2023-04-25T00:58:38;2.60;;;2.40;;
11568;SDS011;5840;46.894;15.542;2023-04-25T01:01:07;2.80;;;2.60;;
11568;SDS011;5840;46.894;15.542;2023-04-25T01:03:34;3.20;;;2.90;;
11568;SDS011;5840;46.894;15.542;2023-04-25T01:06:07;2.90;;;2.70;;
11568;SDS011;5840;46.894;15.542;2023-04-25T01:08:34;2.60;;;2.50;;
11568;SDS011;5840;46.894;15.542;2023-04-25T01:11:01;2.83;;;2.70;;
11568;SDS011;5840;46.894;15.542;2023-04-25T01:13:29;2.60;;;2.40;;
11568;SDS011;5840;46.894;15.542;2023-04-25T01:15:57;2.87;;;2.67;;
11568;SDS011;5840;46.894;15.542;2023-04-25T01:18:24;2.77;;;2.60;;
11568;SDS011;5840;46.894;15.542;2023-04-25T01:20:51;2.87;;;2.67;;
11568;SDS011;5840;46.894;15.542;2023-04-25T01:23:20;2.80;;;2.60;;
11568;SDS011;5840;46.894;15.542;2023-04-25T01:25:47;3.10;;;2.90;;
11568;SDS011;5840;46.894;15.542;2023-04-25T01:28:15;2.80;;;2.60;;
11568;SDS011;5840;46.894;15.542;2023-04-25T01:30:42;4.93;;;2.67;;
11568;SDS011;5840;46.894;15.542;2023-04-25T01:33:10;2.60;;;2.47;;
11568;SDS011;5840;46.894;15.542;2023-04-25T01:35:40;2.87;;;2.67;;
11568;SDS011;5840;46.894;15.542;2023-04-25T01:38:08;2.53;;;2.43;;
11568;SDS011;5840;46.894;15.542;2023-04-25T01:40:37;2.80;;;2.60;;
11568;SDS011;5840;46.894;15.542;2023-04-25T01:43:06;3.00;;;2.80;;
11568;SDS011;5840;46.894;15.542;2023-04-25T01:45:36;2.87;;;2.63;;
11568;SDS011;5840;46.894;15.542;2023-04-25T01:48:05;2.80;;;2.70;;
11568;SDS011;5840;46.894;15.542;2023-04-25T01:50:32;2.70;;;2.60;;
11568;SDS011;5840;46.894;15.542;2023-04-25T01:52:59;3.07;;;2.87;;
11568;SDS011;5840;46.894;15.542;2023-04-25T01:55:26;3.17;;;2.87;;
11568;SDS011;5840;46.894;15.542;2023-04-25T01:57:55;2.30;;;2.20;;
11568;SDS011;5840;46.894;15.542;2023-04-25T02:00:22;2.73;;;2.57;;
11568;SDS011;5840;46.894;15.542;2023-04-25T02:02:49;2.93;;;2.60;;
11568;SDS011;5840;46.894;15.542;2023-04-25T02:05:18;2.60;;;2.50;;
11568;SDS011;5840;46.894;15.542;2023-04-25T02:07:45;3.10;;;2.90;;
11568;SDS011;5840;46.894;15.542;2023-04-25T02:10:13;3.13;;;2.93;;
11568;SDS011;5840;46.894;15.542;2023-04-25T02:12:40;2.70;;;2.60;;
11568;SDS011;5840;46.894;15.542;2023-04-25T02:15:09;4.07;;;2.93;;
11568;SDS011;5840;46.894;15.542;2023-04-25T02:17:36;3.43;;;3.13;;
11568;SDS011;5840;46.894;15.542;2023-04-25T02:20:04;3.53;;;3.23;;
11568;SDS011;5840;46.894;15.542;2023-04-25T02:22:32;3.57;;;3.37;;
11568;SDS011;5840;46.894;15.542;2023-04-25T02:25:00;3.50;;;3.30;;
11568;SDS011;5840;46.894;15.542;2023-04-25T02:27:29;4.10;;;3.80;;
11568;SDS011;5840;46.894;15.542;2023-04-25T02:29:56;3.20;;;2.90;;
11568;SDS011;5840;46.894;15.542;2023-04-25T02:32:24;2.83;;;2.63;;
11568;SDS011;5840;46.894;15.542;2023-04-25T02:34:52;3.60;;;3.30;;
11568;SDS011;5840;46.894;15.542;2023-04-25T02:37:19;3.50;;;3.30;;
11568;SDS011;5840;46.894;15.542;2023-04-25T02:39:46;3.17;;;2.97;;
11568;SDS011;5840;46.894;15.542;2023-04-25T02:42:13;3.50;;;3.27;;
11568;SDS011;5840;46.894;15.542;2023-04-25T02:44:40;4.00;;;3.70;;
11568;SDS011;5840;46.894;15.542;2023-04-25T02:47:07;4.20;;;3.97;;
11568;SDS011;5840;46.894;15.542;2023-04-25T02:49:35;5.10;;;4.77;;
11568;SDS011;5840;46.894;15.542;2023-04-25T02:52:02;5.10;;;4.70;;
11568;SDS011;5840;46.894;15.542;2023-04-25T02:54:29;3.50;;;3.30;;
11568;SDS011;5840;46.894;15.542;2023-04-25T02:56:56;4.60;;;4.20;;
11568;SDS011;5840;46.894;15.542;2023-04-25T02:59:23;5.17;;;4.77;;
11568;SDS011;5840;46.894;15.542;2023-04-25T03:01:50;4.80;;;4.50;;
11568;SDS011;5840;46.894;15.542;2023-04-25T03:04:17;5.33;;;4.70;;
11568;SDS011;5840;46.894;15.542;2023-04-25T03:06:47;4.30;;;4.00;;
11568;SDS011;5840;46.894;15.542;2023-04-25T03:09:14;4.10;;;3.80;;
11568;SDS011;5840;46.894;15.542;2023-04-25T03:11:41;4.90;;;4.60;;
11568;SDS011;5840;46.894;15.542;2023-04-25T03:14:09;4.70;;;4.37;;
11568;SDS011;5840;46.894;15.542;2023-04-25T03:16:37;4.77;;;4.37;;
11568;SDS011;5840;46.894;15.542;2023-04-25T03:19:04;5.07;;;4.67;;
11568;SDS011;5840;46.894;15.542;2023-04-25T03:21:31;4.37;;;4.03;;
11568;SDS011;5840;46.894;15.542;2023-04-25T03:24:01;4.43;;;4.10;;
11568;SDS011;5840;46.894;15.542;2023-04-25T03:26:29;4.90;;;4.60;;
11568;SDS011;5840;46.894;15.542;2023-04-25T03:28:56;4.87;;;4.57;;
11568;SDS011;5840;46.894;15.542;2023-04-25T03:31:23;5.07;;;4.67;;
11568;SDS011;5840;46.894;15.542;2023-04-25T03:33:50;4.97;;;4.67;;
11568;SDS011;5840;46.894;15.542;2023-04-25T03:36:17;5.80;;;5.50;;
11568;SDS011;5840;46.894;15.542;2023-04-25T03:38:44;5.93;;;5.53;;
11568;SDS011;5840;46.894;15.542;2023-04-25T03:41:12;5.93;;;5.53;;
11568;SDS011;5840;46.894;15.542;2023-04-25T03:43:39;6.53;;;6.13;;
11568;SDS011;5840;46.894;15.542;2023-04-25T03:46:06;6.00;;;5.50;;
11568;SDS011;5840;46.894;15.542;2023-04-25T03:48:33;7.30;;;6.70;;
11568;SDS011;5840;46.894;15.542;2023-04-25T03:51:00;7.10;;;6.60;;
11568;SDS011;5840;46.894;15.542;2023-04-25T03:53:27;7.90;;;7.30;;
11568;SDS011;5840;46.894;15.542;2023-04-25T03:55:54;8.83;;;8.10;;
11568;SDS011;5840;46.894;15.542;2023-04-25T03:58:23;7.87;;;7.37;;
11568;SDS011;5840;46.894;15.542;2023-04-25T04:00:50;8.03;;;7.33;;
11568;SDS011;5840;46.894;15.542;2023-04-25T04:03:16;7.33;;;6.73;;
11568;SDS011;5840;46.894;15.542;2023-04-25T04:05:43;6.67;;;6.17;;
11568;SDS011;5840;46.894;15.542;2023-04-25T04:08:11;6.43;;;5.83;;
11568;SDS011;5840;46.894;15.542;2023-04-25T04:10:38;7.13;;;6.63;;
11568;SDS011;5840;46.894;15.542;2023-04-25T04:13:05;7.33;;;6.73;;
11568;SDS011;5840;46.894;15.542;2023-04-25T04:15:33;8.30;;;7.50;;
11568;SDS011;5840;46.894;15.542;2023-04-25T04:18:00;7.27;;;6.70;;
11568;SDS011;5840;46.894;15.542;2023-04-25T04:20:28;6.70;;;6.20;;
11568;SDS011;5840;46.894;15.542;2023-04-25T04:22:55;6.30;;;5.83;;
11568;SDS011;5840;46.894;15.542;2023-04-25T04:25:22;7.93;;;7.30;;
11568;SDS011;5840;46.894;15.542;2023-04-25T04:27:50;7.80;;;7.20;;
11568;SDS011;5840;46.894;15.542;2023-04-25T04:30:19;6.00;;;5.60;;
11568;SDS011;5840;46.894;15.542;2023-04-25T04:32:50;5.80;;;5.07;;
11568;SDS011;5840;46.894;15.542;2023-04-25T04:35:17;6.83;;;6.40;;
11568;SDS011;5840;46.894;15.542;2023-04-25T04:37:44;5.93;;;5.50;;
11568;SDS011;5840;46.894;15.542;2023-04-25T04:40:11;9.53;;;8.63;;
11568;SDS011;5840;46.894;15.542;2023-04-25T04:42:40;7.43;;;6.93;;
11568;SDS011;5840;46.894;15.542;2023-04-25T04:45:07;7.37;;;6.77;;
11568;SDS011;5840;46.894;15.542;2023-04-25T04:47:35;6.13;;;5.73;;
11568;SDS011;5840;46.894;15.542;2023-04-25T04:50:06;5.80;;;5.40;;
11568;SDS011;5840;46.894;15.542;2023-04-25T04:52:34;5.07;;;4.77;;
11568;SDS011;5840;46.894;15.542;2023-04-25T04:55:01;6.83;;;5.23;;
11568;SDS011;5840;46.894;15.542;2023-04-25T04:57:29;5.07;;;4.57;;
11568;SDS011;5840;46.894;15.542;2023-04-25T04:59:57;5.23;;;4.83;;
11568;SDS011;5840;46.894;15.542;2023-04-25T05:02:25;4.73;;;4.43;;
11568;SDS011;5840;46.894;15.542;2023-04-25T05:04:52;6.00;;;5.50;;
11568;SDS011;5840;46.894;15.542;2023-04-25T05:07:21;5.23;;;4.80;;
11568;SDS011;5840;46.894;15.542;2023-04-25T05:09:48;5.07;;;4.67;;
11568;SDS011;5840;46.894;15.542;2023-04-25T05:12:15;4.77;;;4.47;;
11568;SDS011;5840;46.894;15.542;2023-04-25T05:14:42;4.50;;;4.20;;
11568;SDS011;5840;46.894;15.542;2023-04-25T05:17:09;4.73;;;4.37;;
11568;SDS011;5840;46.894;15.542;2023-04-25T05:19:35;4.67;;;4.27;;
11568;SDS011;5840;46.894;15.542;2023-04-25T05:22:03;4.60;;;4.20;;
11568;SDS011;5840;46.894;15.542;2023-04-25T05:24:31;4.50;;;4.20;;
11568;SDS011;5840;46.894;15.542;2023-04-25T05:26:58;4.40;;;4.10;;
11568;SDS011;5840;46.894;15.542;2023-04-25T05:29:25;4.43;;;4.13;;
11568;SDS011;5840;46.894;15.542;2023-04-25T05:31:52;4.37;;;4.07;;
11568;SDS011;5840;46.894;15.542;2023-04-25T05:34:19;4.37;;;4.07;;
11568;SDS011;5840;46.894;15.542;2023-04-25T05:36:45;4.50;;;4.10;;
11568;SDS011;5840;46.894;15.542;2023-04-25T05:39:14;4.17;;;3.87;;
11568;SDS011;5840;46.894;15.542;2023-04-25T05:41:43;4.00;;;3.80;;
11568;SDS011;5840;46.894;15.542;2023-04-25T05:44:10;4.17;;;3.87;;
11568;SDS011;5840;46.894;15.542;2023-04-25T05:46:37;4.80;;;4.50;;
11568;SDS011;5840;46.894;15.542;2023-04-25T05:49:04;4.47;;;4.20;;
11568;SDS011;5840;46.894;15.542;2023-04-25T05:51:31;6.87;;;6.37;;
11568;SDS011;5840;46.894;15.542;2023-04-25T05:53:58;7.50;;;7.00;;
11568;SDS011;5840;46.894;15.542;2023-04-25T05:56:25;6.80;;;6.20;;
11568;SDS011;5840;46.894;15.542;2023-04-25T05:58:53;6.03;;;5.43;;
11568;SDS011;5840;46.894;15.542;2023-04-25T06:01:20;3.90;;;3.70;;
11568;SDS011;5840;46.894;15.542;2023-04-25T06:03:48;4.47;;;3.90;;
11568;SDS011;5840;46.894;15.542;2023-04-25T06:06:16;3.80;;;3.50;;
11568;SDS011;5840;46.894;15.542;2023-04-25T06:08:43;4.17;;;3.77;;
11568;SDS011;5840;46.894;15.542;2023-04-25T06:11:11;3.77;;;3.57;;
11568;SDS011;5840;46.894;15.542;2023-04-25T06:13:37;4.23;;;3.83;;
11568;SDS011;5840;46.894;15.542;2023-04-25T06:16:06;3.20;;;3.00;;
11568;SDS011;5840;46.894;15.542;2023-04-25T06:18:33;3.37;;;3.17;;
11568;SDS011;5840;46.894;15.542;2023-04-25T06:21:00;3.20;;;3.00;;
11568;SDS011;5840;46.894;15.542;2023-04-25T06:23:27;2.83;;;2.73;;
11568;SDS011;5840;46.894;15.542;2023-04-25T06:25:54;2.83;;;2.70;;
11568;SDS011;5840;46.894;15.542;2023-04-25T06:28:21;2.57;;;2.47;;
11568;SDS011;5840;46.894;15.542;2023-04-25T06:30:49;3.30;;;3.00;;
11568;SDS011;5840;46.894;15.542;2023-04-25T06:33:17;2.83;;;2.67;;
11568;SDS011;5840;46.894;15.542;2023-04-25T06:35:45;2.53;;;2.40;;
11568;SDS011;5840;46.894;15.542;2023-04-25T06:38:12;2.60;;;2.40;;
11568;SDS011;5840;46.894;15.542;2023-04-25T06:40:39;2.50;;;2.40;;
11568;SDS011;5840;46.894;15.542;2023-04-25T06:43:06;2.60;;;2.10;;
11568;SDS011;5840;46.894;15.542;2023-04-25T06:45:33;2.17;;;2.07;;
11568;SDS011;5840;46.894;15.542;2023-04-25T06:48:00;2.43;;;2.33;;
11568;SDS011;5840;46.894;15.542;2023-04-25T06:50:28;2.30;;;2.20;;
11568;SDS011;5840;46.894;15.542;2023-04-25T06:52:55;2.20;;;2.10;;
11568;SDS011;5840;46.894;15.542;2023-04-25T06:55:22;2.30;;;2.20;;
11568;SDS011;5840;46.894;15.542;2023-04-25T06:57:49;2.00;;;1.90;;
11568;SDS011;5840;46.894;15.542;2023-04-25T07:00:16;1.80;;;1.80;;
11568;SDS011;5840;46.894;15.542;2023-04-25T07:02:44;2.37;;;2.20;;
11568;SDS011;5840;46.894;15.542;2023-04-25T07:05:11;2.00;;;1.90;;
11568;SDS011;5840;46.894;15.542;2023-04-25T07:07:39;2.17;;;2.07;;
11568;SDS011;5840;46.894;15.542;2023-04-25T07:10:06;3.20;;;2.23;;
11568;SDS011;5840;46.894;15.542;2023-04-25T07:12:33;1.77;;;1.67;;
11568;SDS011;5840;46.894;15.542;2023-04-25T07:15:00;3.03;;;2.90;;
11568;SDS011;5840;46.894;15.542;2023-04-25T07:17:31;2.70;;;2.50;;
11568;SDS011;5840;46.894;15.542;2023-04-25T07:19:59;2.40;;;2.30;;
11568;SDS011;5840;46.894;15.542;2023-04-25T07:22:26;1.83;;;1.77;;
11568;SDS011;5840;46.894;15.542;2023-04-25T07:24:54;3.80;;;2.27;;
11568;SDS011;5840;46.894;15.542;2023-04-25T07:27:21;3.13;;;2.40;;
11568;SDS011;5840;46.894;15.542;2023-04-25T07:29:48;3.70;;;2.63;;
11568;SDS011;5840;46.894;15.542;2023-04-25T07:32:15;4.40;;;2.90;;
11568;SDS011;5840;46.894;15.542;2023-04-25T07:34:42;3.07;;;2.87;;
11568;SDS011;5840;46.894;15.542;2023-04-25T07:37:09;3.57;;;3.37;;
11568;SDS011;5840;46.894;15.542;2023-04-25T07:39:36;3.43;;;3.23;;
11568;SDS011;5840;46.894;15.542;2023-04-25T07:42:04;3.70;;;3.40;;
11568;SDS011;5840;46.894;15.542;2023-04-25T07:44:33;4.13;;;3.83;;
11568;SDS011;5840;46.894;15.542;2023-04-25T07:47:03;3.27;;;3.00;;
11568;SDS011;5840;46.894;15.542;2023-04-25T07:49:32;3.60;;;3.30;;
11568;SDS011;5840;46.894;15.542;2023-04-25T07:52:00;3.53;;;3.33;;
11568;SDS011;5840;46.894;15.542;2023-04-25T07:54:28;3.43;;;3.13;;
11568;SDS011;5840;46.894;15.542;2023-04-25T07:56:58;3.43;;;3.23;;
11568;SDS011;5840;46.894;15.542;2023-04-25T07:59:26;3.70;;;3.40;;
11568;SDS011;5840;46.894;15.542;2023-04-25T08:01:53;3.50;;;3.20;;
11568;SDS011;5840;46.894;15.542;2023-04-25T08:04:20;5.40;;;3.47;;
11568;SDS011;5840;46.894;15.542;2023-04-25T08:06:47;4.43;;;3.70;;
11568;SDS011;5840;46.894;15.542;2023-04-25T08:09:15;3.20;;;3.00;;
11568;SDS011;5840;46.894;15.542;2023-04-25T08:11:42;3.07;;;2.90;;
11568;SDS011;5840;46.894;15.542;2023-04-25T08:14:10;3.10;;;2.90;;
11568;SDS011;5840;46.894;15.542;2023-04-25T08:16:39;2.67;;;2.50;;
11568;SDS011;5840;46.894;15.542;2023-04-25T08:19:07;3.27;;;2.70;;
11568;SDS011;5840;46.894;15.542;2023-04-25T08:21:34;2.80;;;2.57;;
11568;SDS011;5840;46.894;15.542;2023-04-25T08:24:00;2.60;;;2.50;;
11568;SDS011;5840;46.894;15.542;2023-04-25T08:26:28;3.03;;;2.27;;
11568;SDS011;5840;46.894;15.542;2023-04-25T08:28:55;2.10;;;2.00;;
11568;SDS011;5840;46.894;15.542;2023-04-25T08:31:22;2.20;;;2.07;;
11568;SDS011;5840;46.894;15.542;2023-04-25T08:33:50;1.70;;;1.60;;
11568;SDS011;5840;46.894;15.542;2023-04-25T08:36:17;2.27;;;2.00;;
11568;SDS011;5840;46.894;15.542;2023-04-25T08:38:45;2.03;;;1.80;;
11568;SDS011;5840;46.894;15.542;2023-04-25T08:41:11;2.20;;;2.00;;
11568;SDS011;5840;46.894;15.542;2023-04-25T08:43:41;1.93;;;1.80;;
11568;SDS011;5840;46.894;15.542;2023-04-25T08:46:09;2.77;;;1.93;;
11568;SDS011;5840;46.894;15.542;2023-04-25T08:48:38;1.83;;;1.73;;
11568;SDS011;5840;46.894;15.542;2023-04-25T08:51:10;1.67;;;1.60;;
11568;SDS011;5840;46.894;15.542;2023-04-25T08:53:40;1.90;;;1.80;;
11568;SDS011;5840;46.894;15.542;2023-04-25T08:56:08;3.00;;;2.07;;
11568;SDS011;5840;46.894;15.542;2023-04-25T08:58:38;2.03;;;1.93;;
11568;SDS011;5840;46.894;15.542;2023-04-25T09:01:05;1.70;;;1.60;;
11568;SDS011;5840;46.894;15.542;2023-04-25T09:03:32;2.30;;;2.20;;
11568;SDS011;5840;46.894;15.542;2023-04-25T09:06:00;1.50;;;1.50;;
11568;SDS011;5840;46.894;15.542;2023-04-25T09:08:29;2.13;;;2.03;;
11568;SDS011;5840;46.894;15.542;2023-04-25T09:10:56;1.90;;;1.80;;
11568;SDS011;5840;46.894;15.542;2023-04-25T09:13:24;2.47;;;1.50;;
11568;SDS011;5840;46.894;15.542;2023-04-25T09:15:54;1.87;;;1.77;;
11568;SDS011;5840;46.894;15.542;2023-04-25T09:18:23;1.90;;;1.80;;
11568;SDS011;5840;46.894;15.542;2023-04-25T09:20:53;1.47;;;1.47;;
11568;SDS011;5840;46.894;15.542;2023-04-25T09:23:22;1.70;;;1.60;;
11568;SDS011;5840;46.894;15.542;2023-04-25T09:25:52;1.80;;;1.70;;
11568;SDS011;5840;46.894;15.542;2023-04-25T09:28:22;2.13;;;1.93;;
11568;SDS011;5840;46.894;15.542;2023-04-25T09:30:54;1.90;;;1.80;;
11568;SDS011;5840;46.894;15.542;2023-04-25T09:33:22;1.80;;;1.70;;
11568;SDS011;5840;46.894;15.542;2023-04-25T09:35:56;1.93;;;1.80;;
11568;SDS011;5840;46.894;15.542;2023-04-25T09:38:29;1.80;;;1.70;;
11568;SDS011;5840;46.894;15.542;2023-04-25T09:40:58;2.93;;;1.83;;
11568;SDS011;5840;46.894;15.542;2023-04-25T09:43:26;1.87;;;1.77;;
11568;SDS011;5840;46.894;15.542;2023-04-25T09:45:54;2.37;;;1.90;;
11568;SDS011;5840;46.894;15.542;2023-04-25T09:48:26;2.03;;;1.87;;
11568;SDS011;5840;46.894;15.542;2023-04-25T09:51:06;1.80;;;1.70;;
11568;SDS011;5840;46.894;15.542;2023-04-25T09:53:34;1.60;;;1.50;;
11568;SDS011;5840;46.894;15.542;2023-04-25T09:56:05;1.80;;;1.70;;
11568;SDS011;5840;46.894;15.542;2023-04-25T09:58:33;2.03;;;1.80;;
11568;SDS011;5840;46.894;15.542;2023-04-25T10:01:01;1.80;;;1.70;;
11568;SDS011;5840;46.894;15.542;2023-04-25T10:03:29;1.80;;;1.70;;
11568;SDS011;5840;46.894;15.542;2023-04-25T10:05:58;1.73;;;1.63;;
11568;SDS011;5840;46.894;15.542;2023-04-25T10:08:27;1.80;;;1.70;;
11568;SDS011;5840;46.894;15.542;2023-04-25T10:10:59;1.90;;;1.80;;
11568;SDS011;5840;46.894;15.542;2023-04-25T10:13:28;1.90;;;1.80;;
11568;SDS011;5840;46.894;15.542;2023-04-25T10:15:56;1.87;;;1.77;;
11568;SDS011;5840;46.894;15.542;2023-04-25T10:18:24;1.70;;;1.60;;
11568;SDS011;5840;46.894;15.542;2023-04-25T10:20:53;1.73;;;1.53;;
11568;SDS011;5840;46.894;15.542;2023-04-25T10:23:21;1.80;;;1.70;;
11568;SDS011;5840;46.894;15.542;2023-04-25T10:25:49;2.13;;;1.60;;
11568;SDS011;5840;46.894;15.542;2023-04-25T10:28:16;1.70;;;1.60;;
11568;SDS011;5840;46.894;15.542;2023-04-25T10:33:33;2.23;;;1.60;;
11568;SDS011;5840;46.894;15.542;2023-04-25T10:36:11;1.70;;;1.50;;
11568;SDS011;5840;46.894;15.542;2023-04-25T10:38:39;1.70;;;1.60;;
11568;SDS011;5840;46.894;15.542;2023-04-25T10:41:06;1.50;;;1.50;;
11568;SDS011;5840;46.894;15.542;2023-04-25T10:43:36;2.33;;;1.80;;
11568;SDS011;5840;46.894;15.542;2023-04-25T10:46:18;1.50;;;1.40;;
11568;SDS011;5840;46.894;15.542;2023-04-25T10:48:48;1.77;;;1.67;;
11568;SDS011;5840;46.894;15.542;2023-04-25T10:51:17;1.60;;;1.60;;
11568;SDS011;5840;46.894;15.542;2023-04-25T10:53:46;2.83;;;1.70;;
11568;SDS011;5840;46.894;15.542;2023-04-25T10:56:16;2.80;;;1.90;;
11568;SDS011;5840;46.894;15.542;2023-04-25T10:58:44;2.00;;;1.90;;
11568;SDS011;5840;46.894;15.542;2023-04-25T11:01:11;1.90;;;1.80;;
11568;SDS011;5840;46.894;15.542;2023-04-25T11:03:43;1.97;;;1.87;;
11568;SDS011;5840;46.894;15.542;2023-04-25T11:06:15;1.80;;;1.70;;
11568;SDS011;5840;46.894;15.542;2023-04-25T11:08:49;2.27;;;1.60;;
11568;SDS011;5840;46.894;15.542;2023-04-25T11:11:16;3.80;;;1.90;;
11568;SDS011;5840;46.894;15.542;2023-04-25T11:13:44;2.73;;;1.80;;
11568;SDS011;5840;46.894;15.542;2023-04-25T11:16:13;1.87;;;1.77;;
11568;SDS011;5840;46.894;15.542;2023-04-25T11:18:40;1.90;;;1.80;;
11568;SDS011;5840;46.894;15.542;2023-04-25T11:21:09;1.53;;;1.50;;
11568;SDS011;5840;46.894;15.542;2023-04-25T11:23:36;1.80;;;1.70;;
11568;SDS011;5840;46.894;15.542;2023-04-25T11:26:03;2.20;;;2.00;;
11568;SDS011;5840;46.894;15.542;2023-04-25T11:28:31;1.67;;;1.60;;
11568;SDS011;5840;46.894;15.542;2023-04-25T11:30:58;2.00;;;1.90;;
11568;SDS011;5840;46.894;15.542;2023-04-25T11:33:25;2.83;;;2.03;;
11568;SDS011;5840;46.894;15.542;2023-04-25T11:35:53;2.03;;;1.83;;
11568;SDS011;5840;46.894;15.542;2023-04-25T11:38:22;2.17;;;1.90;;
11568;SDS011;5840;46.894;15.542;2023-04-25T11:40:51;2.27;;;2.07;;
11568;SDS011;5840;46.894;15.542;2023-04-25T11:43:19;2.03;;;1.93;;
11568;SDS011;5840;46.894;15.542;2023-04-25T11:45:47;2.50;;;1.70;;
11568;SDS011;5840;46.894;15.542;2023-04-25T11:48:15;1.67;;;1.60;;
11568;SDS011;5840;46.894;15.542;2023-04-25T11:50:42;1.80;;;1.70;;
11568;SDS011;5840;46.894;15.542;2023-04-25T11:53:09;1.60;;;1.50;;
11568;SDS011;5840;46.894;15.542;2023-04-25T11:55:38;2.40;;;1.63;;
11568;SDS011;5840;46.894;15.542;2023-04-25T11:58:05;1.57;;;1.57;;
11568;SDS011;5840;46.894;15.542;2023-04-25T12:00:33;1.80;;;1.50;;
11568;SDS011;5840;46.894;15.542;2023-04-25T12:03:00;2.83;;;1.53;;
11568;SDS011;5840;46.894;15.542;2023-04-25T12:05:28;4.10;;;1.70;;
11568;SDS011;5840;46.894;15.542;2023-04-25T12:07:58;1.70;;;1.60;;
11568;SDS011;5840;46.894;15.542;2023-04-25T12:10:38;1.80;;;1.70;;
11568;SDS011;5840;46.894;15.542;2023-04-25T12:13:18;2.37;;;1.77;;
11568;SDS011;5840;46.894;15.542;2023-04-25T12:15:46;1.60;;;1.60;;
11568;SDS011;5840;46.894;15.542;2023-04-25T12:18:14;1.47;;;1.40;;
11568;SDS011;5840;46.894;15.542;2023-04-25T12:20:41;1.73;;;1.63;;
11568;SDS011;5840;46.894;15.542;2023-04-25T12:23:08;1.57;;;1.43;;
11568;SDS011;5840;46.894;15.542;2023-04-25T12:25:38;1.70;;;1.60;;
11568;SDS011;5840;46.894;15.542;2023-04-25T12:28:13;1.97;;;1.87;;
11568;SDS011;5840;46.894;15.542;2023-04-25T12:30:57;2.00;;;1.80;;
11568;SDS011;5840;46.894;15.542;2023-04-25T12:33:26;2.10;;;1.60;;
11568;SDS011;5840;46.894;15.542;2023-04-25T12:35:54;3.13;;;1.87;;
11568;SDS011;5840;46.894;15.542;2023-04-25T12:38:23;2.23;;;2.10;;
11568;SDS011;5840;46.894;15.542;2023-04-25T12:40:51;2.37;;;2.10;;
11568;SDS011;5840;46.894;15.542;2023-04-25T12:43:18;2.20;;;1.90;;
11568;SDS011;5840;46.894;15.542;2023-04-25T12:45:47;6.90;;;2.40;;
11568;SDS011;5840;46.894;15.542;2023-04-25T12:48:15;1.97;;;1.80;;
11568;SDS011;5840;46.894;15.542;2023-04-25T12:50:42;2.30;;;2.10;;
11568;SDS011;5840;46.894;15.542;2023-04-25T12:53:09;1.87;;;1.77;;
11568;SDS011;5840;46.894;15.542;2023-04-25T12:55:36;2.30;;;1.90;;
11568;SDS011;5840;46.894;15.542;2023-04-25T12:58:05;2.10;;;2.00;;
11568;SDS011;5840;46.894;15.542;2023-04-25T13:00:32;4.37;;;2.00;;
11568;SDS011;5840;46.894;15.542;2023-04-25T13:02:59;1.67;;;1.57;;
11568;SDS011;5840;46.894;15.542;2023-04-25T13:05:27;1.60;;;1.60;;
11568;SDS011;5840;46.894;15.542;2023-04-25T13:07:55;1.53;;;1.43;;
11568;SDS011;5840;46.894;15.542;2023-04-25T13:10:22;1.60;;;1.50;;
11568;SDS011;5840;46.894;15.542;2023-04-25T13:12:49;1.77;;;1.67;;
11568;SDS011;5840;46.894;15.542;2023-04-25T13:15:17;1.50;;;1.40;;
11568;SDS011;5840;46.894;15.542;2023-04-25T13:17:44;1.80;;;1.70;;
11568;SDS011;5840;46.894;15.542;2023-04-25T13:20:11;1.40;;;1.30;;
11568;SDS011;5840;46.894;15.542;2023-04-25T13:22:40;1.27;;;1.27;;
11568;SDS011;5840;46.894;15.542;2023-04-25T13:25:07;1.30;;;1.30;;
11568;SDS011;5840;46.894;15.542;2023-04-25T13:27:35;1.33;;;1.23;;
11568;SDS011;5840;46.894;15.542;2023-04-25T13:30:03;1.30;;;1.30;;
11568;SDS011;5840;46.894;15.542;2023-04-25T13:32:33;1.90;;;1.50;;
11568;SDS011;5840;46.894;15.542;2023-04-25T13:35:02;1.37;;;1.27;;
11568;SDS011;5840;46.894;15.542;2023-04-25T13:37:29;2.50;;;1.50;;
11568;SDS011;5840;46.894;15.542;2023-04-25T13:39:58;1.37;;;1.37;;
11568;SDS011;5840;46.894;15.542;2023-04-25T13:42:26;1.57;;;1.47;;
11568;SDS011;5840;46.894;15.542;2023-04-25T13:44:53;1.70;;;1.60;;
11568;SDS011;5840;46.894;15.542;2023-04-25T13:47:20;1.60;;;1.50;;
11568;SDS011;5840;46.894;15.542;2023-04-25T13:49:49;1.80;;;1.70;;
11568;SDS011;5840;46.894;15.542;2023-04-25T13:52:16;1.77;;;1.60;;
11568;SDS011;5840;46.894;15.542;2023-04-25T13:54:43;1.80;;;1.70;;
11568;SDS011;5840;46.894;15.542;2023-04-25T13:57:10;1.63;;;1.47;;
11568;SDS011;5840;46.894;15.542;2023-04-25T13:59:37;1.77;;;1.67;;
11568;SDS011;5840;46.894;15.542;2023-04-25T14:02:05;1.47;;;1.43;;
11568;SDS011;5840;46.894;15.542;2023-04-25T14:04:32;1.70;;;1.70;;
11568;SDS011;5840;46.894;15.542;2023-04-25T14:07:01;2.00;;;1.80;;
11568;SDS011;5840;46.894;15.542;2023-04-25T14:09:29;1.50;;;1.47;;
11568;SDS011;5840;46.894;15.542;2023-04-25T14:11:56;1.97;;;1.87;;
11568;SDS011;5840;46.894;15.542;2023-04-25T14:14:23;2.20;;;2.00;;
11568;SDS011;5840;46.894;15.542;2023-04-25T14:16:51;2.20;;;2.00;;
11568;SDS011;5840;46.894;15.542;2023-04-25T14:19:19;2.00;;;1.80;;
11568;SDS011;5840;46.894;15.542;2023-04-25T14:21:46;1.70;;;1.60;;
11568;SDS011;5840;46.894;15.542;2023-04-25T14:24:14;1.67;;;1.63;;
11568;SDS011;5840;46.894;15.542;2023-04-25T14:26:41;1.90;;;1.80;;
11568;SDS011;5840;46.894;15.542;2023-04-25T14:29:09;2.23;;;2.03;;
11568;SDS011;5840;46.894;15.542;2023-04-25T14:31:37;3.67;;;2.10;;
11568;SDS011;5840;46.894;15.542;2023-04-25T14:34:04;1.80;;;1.70;;
11568;SDS011;5840;46.894;15.542;2023-04-25T14:36:32;1.77;;;1.63;;
11568;SDS011;5840;46.894;15.542;2023-04-25T14:38:59;1.40;;;1.40;;
11568;SDS011;5840;46.894;15.542;2023-04-25T14:41:27;1.57;;;1.47;;
11568;SDS011;5840;46.894;15.542;2023-04-25T14:43:54;1.50;;;1.50;;
11568;SDS011;5840;46.894;15.542;2023-04-25T14:46:21;1.50;;;1.50;;
11568;SDS011;5840;46.894;15.542;2023-04-25T14:48:49;1.70;;;1.60;;
11568;SDS011;5840;46.894;15.542;2023-04-25T14:51:16;1.40;;;1.40;;
11568;SDS011;5840;46.894;15.542;2023-04-25T14:53:42;1.70;;;1.60;;
11568;SDS011;5840;46.894;15.542;2023-04-25T14:56:09;1.50;;;1.40;;